sensor_id;sensor_type;location;lat;lon;timestamp;pressure;altitude;pressure_sealevel;temperature;humidity
59877;BME280;45749;51.140;17.184;2022-12-24T00:02:18;98865.86;;;7.42;100.00
59877;BME280;45749;51.140;17.184;2022-12-24T00:04:44;98866.34;;;7.42;100.00
59877;BME280;45749;51.140;17.184;2022-12-24T00:07:10;98873.73;;;7.42;100.00
59877;BME280;45749;51.140;17.184;2022-12-24T00:09:36;98869.31;;;7.43;100.00
59877;BME280;45749;51.140;17.184;2022-12-24T00:12:02;98864.55;;;7.42;100.00
59877;BME280;45749;51.140;17.184;2022-12-24T00:14:29;98864.55;;;7.42;100.00
59877;BME280;45749;51.140;17.184;2022-12-24T00:16:55;98867.77;;;7.40;100.00
59877;BME280;45749;51.140;17.184;2022-12-24T00:19:21;98857.75;;;7.40;100.00
59877;BME280;45749;51.140;17.184;2022-12-24T00:21:47;98852.65;;;7.38;100.00
59877;BME280;45749;51.140;17.184;2022-12-24T00:24:13;98841.81;;;7.37;100.00
59877;BME280;45749;51.140;17.184;2022-12-24T00:26:39;98826.98;;;7.21;100.00
59877;BME280;45749;51.140;17.184;2022-12-24T00:29:05;98826.98;;;7.21;100.00
59877;BME280;45749;51.140;17.184;2022-12-24T00:31:31;98853.01;;;7.34;100.00
59877;BME280;45749;51.140;17.184;2022-12-24T00:33:57;98856.12;;;7.33;100.00
59877;BME280;45749;51.140;17.184;2022-12-24T00:36:22;98856.74;;;7.31;100.00
59877;BME280;45749;51.140;17.184;2022-12-24T00:38:48;98857.68;;;7.30;100.00
59877;BME280;45749;51.140;17.184;2022-12-24T00:41:15;98856.99;;;7.28;100.00
59877;BME280;45749;51.140;17.184;2022-12-24T00:43:58;98858.79;;;7.27;100.00
59877;BME280;45749;51.140;17.184;2022-12-24T00:46:24;98866.66;;;7.27;100.00
59877;BME280;45749;51.140;17.184;2022-12-24T00:48:52;98862.84;;;7.26;100.00
59877;BME280;45749;51.140;17.184;2022-12-24T00:51:18;98864.15;;;7.26;100.00
59877;BME280;45749;51.140;17.184;2022-12-24T00:53:45;98865.45;;;7.26;100.00
59877;BME280;45749;51.140;17.184;2022-12-24T00:56:11;98868.91;;;7.26;100.00
59877;BME280;45749;51.140;17.184;2022-12-24T00:58:37;98857.93;;;7.27;100.00
59877;BME280;45749;51.140;17.184;2022-12-24T01:01:04;98856.16;;;7.27;100.00
59877;BME280;45749;51.140;17.184;2022-12-24T01:03:30;98855.45;;;7.25;100.00
59877;BME280;45749;51.140;17.184;2022-12-24T01:06:06;98860.21;;;7.26;100.00
59877;BME280;45749;51.140;17.184;2022-12-24T01:08:34;98864.15;;;7.26;100.00
59877;BME280;45749;51.140;17.184;2022-12-24T01:11:01;98870.70;;;7.26;100.00
59877;BME280;45749;51.140;17.184;2022-12-24T01:13:28;98876.19;;;7.28;100.00
59877;BME280;45749;51.140;17.184;2022-12-24T01:15:55;98877.84;;;7.29;100.00
59877;BME280;45749;51.140;17.184;2022-12-24T01:18:21;98878.22;;;7.31;100.00
59877;BME280;45749;51.140;17.184;2022-12-24T01:21:00;98880.22;;;7.33;100.00
59877;BME280;45749;51.140;17.184;2022-12-24T01:23:28;98862.56;;;7.35;100.00
59877;BME280;45749;51.140;17.184;2022-12-24T01:26:00;98862.09;;;7.35;100.00
59877;BME280;45749;51.140;17.184;2022-12-24T01:28:27;98856.10;;;7.39;100.00
59877;BME280;45749;51.140;17.184;2022-12-24T01:30:53;98855.04;;;7.36;100.00
59877;BME280;45749;51.140;17.184;2022-12-24T01:33:20;98862.34;;;7.32;100.00
59877;BME280;45749;51.140;17.184;2022-12-24T01:35:45;98858.74;;;7.33;100.00
59877;BME280;45749;51.140;17.184;2022-12-24T01:38:12;98856.95;;;7.34;100.00
59877;BME280;45749;51.140;17.184;2022-12-24T01:40:40;98856.95;;;7.34;100.00
59877;BME280;45749;51.140;17.184;2022-12-24T01:43:29;98855.19;;;7.34;100.00
59877;BME280;45749;51.140;17.184;2022-12-24T01:46:04;98855.44;;;7.31;100.00
59877;BME280;45749;51.140;17.184;2022-12-24T01:53:58;98856.76;;;7.25;100.00
59877;BME280;45749;51.140;17.184;2022-12-24T01:56:30;98855.22;;;7.23;100.00
59877;BME280;45749;51.140;17.184;2022-12-24T01:58:59;98853.22;;;7.21;100.00
59877;BME280;45749;51.140;17.184;2022-12-24T02:01:28;98859.40;;;7.20;100.00
59877;BME280;45749;51.140;17.184;2022-12-24T02:03:54;98854.40;;;7.17;100.00
59877;BME280;45749;51.140;17.184;2022-12-24T02:06:21;98851.69;;;7.13;100.00
59877;BME280;45749;51.140;17.184;2022-12-24T02:08:48;98852.65;;;7.12;100.00
59877;BME280;45749;51.140;17.184;2022-12-24T02:11:19;98852.27;;;7.11;100.00
59877;BME280;45749;51.140;17.184;2022-12-24T02:13:49;98849.66;;;7.11;100.00
59877;BME280;45749;51.140;17.184;2022-12-24T02:19:23;98847.17;;;7.09;100.00
59877;BME280;45749;51.140;17.184;2022-12-24T02:24:52;98838.33;;;7.10;100.00
59877;BME280;45749;51.140;17.184;2022-12-24T02:30:45;98841.00;;;7.04;100.00
59877;BME280;45749;51.140;17.184;2022-12-24T02:36:11;98836.50;;;6.95;100.00
59877;BME280;45749;51.140;17.184;2022-12-24T02:39:00;98841.16;;;6.92;100.00
59877;BME280;45749;51.140;17.184;2022-12-24T02:41:32;98852.58;;;6.91;100.00
59877;BME280;45749;51.140;17.184;2022-12-24T02:44:25;98831.74;;;6.89;100.00
59877;BME280;45749;51.140;17.184;2022-12-24T02:46:52;98832.33;;;6.87;100.00
59877;BME280;45749;51.140;17.184;2022-12-24T02:49:19;98850.44;;;6.90;100.00
59877;BME280;45749;51.140;17.184;2022-12-24T02:51:45;98850.58;;;6.94;100.00
59877;BME280;45749;51.140;17.184;2022-12-24T02:54:12;98851.27;;;6.96;100.00
59877;BME280;45749;51.140;17.184;2022-12-24T02:57:07;98846.02;;;6.96;100.00
59877;BME280;45749;51.140;17.184;2022-12-24T03:11:12;98847.55;;;7.04;100.00
59877;BME280;45749;51.140;17.184;2022-12-24T03:13:41;98842.31;;;7.04;100.00
59877;BME280;45749;51.140;17.184;2022-12-24T03:16:11;98848.00;;;7.04;100.00
59877;BME280;45749;51.140;17.184;2022-12-24T03:18:41;98841.09;;;7.09;100.00
59877;BME280;45749;51.140;17.184;2022-12-24T03:21:13;98845.27;;;7.11;100.00
59877;BME280;45749;51.140;17.184;2022-12-24T03:23:43;98850.72;;;7.14;100.00
59877;BME280;45749;51.140;17.184;2022-12-24T03:26:11;98857.02;;;7.17;100.00
59877;BME280;45749;51.140;17.184;2022-12-24T03:28:40;98848.80;;;7.21;100.00
59877;BME280;45749;51.140;17.184;2022-12-24T03:31:08;98852.97;;;7.24;100.00
59877;BME280;45749;51.140;17.184;2022-12-24T03:33:34;98854.14;;;7.25;100.00
59877;BME280;45749;51.140;17.184;2022-12-24T03:36:01;98854.62;;;7.25;100.00
59877;BME280;45749;51.140;17.184;2022-12-24T03:38:27;98852.48;;;7.24;100.00
59877;BME280;45749;51.140;17.184;2022-12-24T03:40:53;98851.52;;;7.25;100.00
59877;BME280;45749;51.140;17.184;2022-12-24T03:43:19;98846.61;;;7.26;100.00
59877;BME280;45749;51.140;17.184;2022-12-24T03:45:45;98847.44;;;7.27;100.00
59877;BME280;45749;51.140;17.184;2022-12-24T03:48:11;98850.78;;;7.29;100.00
59877;BME280;45749;51.140;17.184;2022-12-24T03:50:37;98858.40;;;7.32;100.00
59877;BME280;45749;51.140;17.184;2022-12-24T03:53:03;98862.19;;;7.34;100.00
59877;BME280;45749;51.140;17.184;2022-12-24T03:55:29;98858.74;;;7.33;100.00
59877;BME280;45749;51.140;17.184;2022-12-24T03:57:55;98864.23;;;7.36;100.00
59877;BME280;45749;51.140;17.184;2022-12-24T04:00:21;98865.52;;;7.41;100.00
59877;BME280;45749;51.140;17.184;2022-12-24T04:02:47;98875.39;;;7.43;100.00
59877;BME280;45749;51.140;17.184;2022-12-24T04:05:16;98870.27;;;7.47;100.00
59877;BME280;45749;51.140;17.184;2022-12-24T04:07:43;98854.64;;;7.40;100.00
59877;BME280;45749;51.140;17.184;2022-12-24T04:10:10;98872.16;;;7.51;100.00
59877;BME280;45749;51.140;17.184;2022-12-24T04:12:37;98869.05;;;7.51;100.00
59877;BME280;45749;51.140;17.184;2022-12-24T04:15:04;98869.53;;;7.51;100.00
59877;BME280;45749;51.140;17.184;2022-12-24T04:17:30;98870.02;;;7.50;100.00
59877;BME280;45749;51.140;17.184;2022-12-24T04:19:57;98872.84;;;7.53;100.00
59877;BME280;45749;51.140;17.184;2022-12-24T04:22:23;98875.84;;;7.54;100.00
59877;BME280;45749;51.140;17.184;2022-12-24T04:24:49;98876.09;;;7.51;100.00
59877;BME280;45749;51.140;17.184;2022-12-24T04:27:14;98872.64;;;7.50;100.00
59877;BME280;45749;51.140;17.184;2022-12-24T04:29:41;98874.30;;;7.51;100.00
59877;BME280;45749;51.140;17.184;2022-12-24T04:32:06;98878.58;;;7.52;100.00
59877;BME280;45749;51.140;17.184;2022-12-24T04:34:32;98874.38;;;7.56;100.00
59877;BME280;45749;51.140;17.184;2022-12-24T04:36:58;98877.59;;;7.59;100.00
59877;BME280;45749;51.140;17.184;2022-12-24T04:39:24;98882.92;;;7.63;100.00
59877;BME280;45749;51.140;17.184;2022-12-24T04:41:50;98883.05;;;7.67;100.00
59877;BME280;45749;51.140;17.184;2022-12-24T04:44:16;98880.51;;;7.71;100.00
59877;BME280;45749;51.140;17.184;2022-12-24T04:46:42;98882.73;;;7.76;100.00
59877;BME280;45749;51.140;17.184;2022-12-24T04:49:08;98882.48;;;7.79;100.00
59877;BME280;45749;51.140;17.184;2022-12-24T04:51:34;98888.53;;;7.85;100.00
59877;BME280;45749;51.140;17.184;2022-12-24T04:54:01;98875.97;;;7.89;100.00
59877;BME280;45749;51.140;17.184;2022-12-24T04:56:29;98884.42;;;7.92;100.00
59877;BME280;45749;51.140;17.184;2022-12-24T04:58:58;98879.28;;;7.96;100.00
59877;BME280;45749;51.140;17.184;2022-12-24T05:01:27;98878.06;;;8.01;100.00
59877;BME280;45749;51.140;17.184;2022-12-24T05:03:55;98883.05;;;8.04;100.00
59877;BME280;45749;51.140;17.184;2022-12-24T05:06:28;98887.56;;;8.07;100.00
59877;BME280;45749;51.140;17.184;2022-12-24T05:08:55;98896.84;;;8.11;100.00
59877;BME280;45749;51.140;17.184;2022-12-24T05:11:22;98903.98;;;8.15;100.00
59877;BME280;45749;51.140;17.184;2022-12-24T05:13:49;98902.41;;;8.18;100.00
59877;BME280;45749;51.140;17.184;2022-12-24T05:16:16;98905.75;;;8.20;100.00
59877;BME280;45749;51.140;17.184;2022-12-24T05:18:43;98905.48;;;8.23;100.00
59877;BME280;45749;51.140;17.184;2022-12-24T05:21:20;98910.11;;;8.25;100.00
59877;BME280;45749;51.140;17.184;2022-12-24T05:23:44;98919.20;;;8.27;100.00
59877;BME280;45749;51.140;17.184;2022-12-24T05:26:35;98913.80;;;8.28;100.00
59877;BME280;45749;51.140;17.184;2022-12-24T05:29:00;98914.51;;;8.30;100.00
59877;BME280;45749;51.140;17.184;2022-12-24T05:31:29;98912.94;;;8.33;100.00
59877;BME280;45749;51.140;17.184;2022-12-24T05:33:57;98921.16;;;8.34;100.00
59877;BME280;45749;51.140;17.184;2022-12-24T05:36:24;98924.13;;;8.35;100.00
59877;BME280;45749;51.140;17.184;2022-12-24T05:38:50;98923.53;;;8.37;100.00
59877;BME280;45749;51.140;17.184;2022-12-24T05:41:17;98926.90;;;8.39;100.00
59877;BME280;45749;51.140;17.184;2022-12-24T05:43:43;98927.84;;;8.38;100.00
59877;BME280;45749;51.140;17.184;2022-12-24T05:46:12;98943.72;;;8.42;100.00
59877;BME280;45749;51.140;17.184;2022-12-24T05:48:40;98940.61;;;8.43;100.00
59877;BME280;45749;51.140;17.184;2022-12-24T05:51:07;98954.66;;;8.48;100.00
59877;BME280;45749;51.140;17.184;2022-12-24T05:53:36;98949.97;;;8.51;100.00
59877;BME280;45749;51.140;17.184;2022-12-24T05:56:05;98948.05;;;8.53;100.00
59877;BME280;45749;51.140;17.184;2022-12-24T05:58:33;98959.73;;;8.55;100.00
59877;BME280;45749;51.140;17.184;2022-12-24T06:01:00;98959.97;;;8.57;100.00
59877;BME280;45749;51.140;17.184;2022-12-24T06:03:28;98961.16;;;8.59;100.00
59877;BME280;45749;51.140;17.184;2022-12-24T06:06:03;98966.28;;;8.60;100.00
59877;BME280;45749;51.140;17.184;2022-12-24T06:08:35;98968.30;;;8.62;100.00
59877;BME280;45749;51.140;17.184;2022-12-24T06:11:05;98980.48;;;8.63;100.00
59877;BME280;45749;51.140;17.184;2022-12-24T06:13:32;98979.50;;;8.64;100.00
59877;BME280;45749;51.140;17.184;2022-12-24T06:16:02;98984.28;;;8.65;100.00
59877;BME280;45749;51.140;17.184;2022-12-24T06:18:30;98988.94;;;8.67;100.00
59877;BME280;45749;51.140;17.184;2022-12-24T06:20:56;98988.45;;;8.67;100.00
59877;BME280;45749;51.140;17.184;2022-12-24T06:23:23;98985.48;;;8.66;100.00
59877;BME280;45749;51.140;17.184;2022-12-24T06:25:50;98991.56;;;8.67;100.00
59877;BME280;45749;51.140;17.184;2022-12-24T06:28:16;98999.68;;;8.69;100.00
59877;BME280;45749;51.140;17.184;2022-12-24T06:30:47;99000.02;;;8.71;100.00
59877;BME280;45749;51.140;17.184;2022-12-24T06:33:14;99006.94;;;8.72;100.00
59877;BME280;45749;51.140;17.184;2022-12-24T06:35:41;99012.56;;;8.73;100.00
59877;BME280;45749;51.140;17.184;2022-12-24T06:38:09;99014.83;;;8.72;100.00
59877;BME280;45749;51.140;17.184;2022-12-24T06:40:37;99014.38;;;8.72;100.00
59877;BME280;45749;51.140;17.184;2022-12-24T06:43:04;99018.66;;;8.73;100.00
59877;BME280;45749;51.140;17.184;2022-12-24T06:45:30;99021.28;;;8.73;100.00
59877;BME280;45749;51.140;17.184;2022-12-24T06:47:57;99024.26;;;8.74;100.00
59877;BME280;45749;51.140;17.184;2022-12-24T06:50:23;99030.34;;;8.75;100.00
59877;BME280;45749;51.140;17.184;2022-12-24T06:52:49;99033.34;;;8.76;100.00
59877;BME280;45749;51.140;17.184;2022-12-24T06:55:15;99034.52;;;8.77;100.00
59877;BME280;45749;51.140;17.184;2022-12-24T06:57:41;99045.86;;;8.78;100.00
59877;BME280;45749;51.140;17.184;2022-12-24T07:00:09;99044.06;;;8.78;100.00
59877;BME280;45749;51.140;17.184;2022-12-24T07:02:44;99043.46;;;8.80;100.00
59877;BME280;45749;51.140;17.184;2022-12-24T07:05:09;99053.16;;;8.80;100.00
59877;BME280;45749;51.140;17.184;2022-12-24T07:07:37;99049.21;;;8.80;100.00
59877;BME280;45749;51.140;17.184;2022-12-24T07:10:04;99056.95;;;8.81;100.00
59877;BME280;45749;51.140;17.184;2022-12-24T07:12:33;99058.76;;;8.81;100.00
59877;BME280;45749;51.140;17.184;2022-12-24T07:14:59;99069.02;;;8.84;100.00
59877;BME280;45749;51.140;17.184;2022-12-24T07:17:25;99072.28;;;8.82;100.00
59877;BME280;45749;51.140;17.184;2022-12-24T07:19:51;99078.00;;;8.81;100.00
59877;BME280;45749;51.140;17.184;2022-12-24T07:22:18;99080.63;;;8.81;100.00
59877;BME280;45749;51.140;17.184;2022-12-24T07:24:44;99085.78;;;8.83;100.00
59877;BME280;45749;51.140;17.184;2022-12-24T07:27:10;99092.35;;;8.83;100.00
59877;BME280;45749;51.140;17.184;2022-12-24T07:29:36;99098.78;;;8.84;100.00
59877;BME280;45749;51.140;17.184;2022-12-24T07:32:02;99099.98;;;8.86;100.00
59877;BME280;45749;51.140;17.184;2022-12-24T07:34:28;99107.73;;;8.87;100.00
59877;BME280;45749;51.140;17.184;2022-12-24T07:36:54;99114.45;;;8.86;100.00
59877;BME280;45749;51.140;17.184;2022-12-24T07:39:20;99118.40;;;8.86;100.00
59877;BME280;45749;51.140;17.184;2022-12-24T07:41:45;99130.35;;;8.84;100.00
59877;BME280;45749;51.140;17.184;2022-12-24T07:44:12;99131.32;;;8.83;100.00
59877;BME280;45749;51.140;17.184;2022-12-24T07:46:39;99136.24;;;8.82;100.00
59877;BME280;45749;51.140;17.184;2022-12-24T07:49:06;99133.04;;;8.79;100.00
59877;BME280;45749;51.140;17.184;2022-12-24T07:51:32;99141.64;;;8.75;100.00
59877;BME280;45749;51.140;17.184;2022-12-24T07:53:58;99137.98;;;8.72;100.00
59877;BME280;45749;51.140;17.184;2022-12-24T07:56:24;99141.80;;;8.68;100.00
59877;BME280;45749;51.140;17.184;2022-12-24T07:58:50;99155.58;;;8.66;100.00
59877;BME280;45749;51.140;17.184;2022-12-24T08:01:17;99151.89;;;8.63;100.00
59877;BME280;45749;51.140;17.184;2022-12-24T08:03:43;99166.46;;;8.61;100.00
59877;BME280;45749;51.140;17.184;2022-12-24T08:06:10;99172.70;;;8.60;100.00
59877;BME280;45749;51.140;17.184;2022-12-24T08:08:36;99172.84;;;8.59;100.00
59877;BME280;45749;51.140;17.184;2022-12-24T08:11:05;99175.57;;;8.57;100.00
59877;BME280;45749;51.140;17.184;2022-12-24T08:13:32;99172.71;;;8.55;100.00
59877;BME280;45749;51.140;17.184;2022-12-24T08:15:58;99179.42;;;8.53;100.00
59877;BME280;45749;51.140;17.184;2022-12-24T08:18:24;99189.56;;;8.52;100.00
59877;BME280;45749;51.140;17.184;2022-12-24T08:20:51;99208.34;;;8.53;100.00
59877;BME280;45749;51.140;17.184;2022-12-24T08:23:17;99206.66;;;8.52;100.00
59877;BME280;45749;51.140;17.184;2022-12-24T08:25:45;99207.52;;;8.53;100.00
59877;BME280;45749;51.140;17.184;2022-12-24T08:28:14;99215.41;;;8.53;100.00
59877;BME280;45749;51.140;17.184;2022-12-24T08:30:41;99221.49;;;8.53;100.00
59877;BME280;45749;51.140;17.184;2022-12-24T08:33:09;99221.98;;;8.53;100.00
59877;BME280;45749;51.140;17.184;2022-12-24T08:35:35;99236.78;;;8.54;100.00
59877;BME280;45749;51.140;17.184;2022-12-24T08:38:02;99236.30;;;8.54;100.00
59877;BME280;45749;51.140;17.184;2022-12-24T08:40:28;99245.39;;;8.56;100.00
59877;BME280;45749;51.140;17.184;2022-12-24T08:42:54;99246.81;;;8.54;100.00
59877;BME280;45749;51.140;17.184;2022-12-24T08:45:20;99262.48;;;8.56;100.00
59877;BME280;45749;51.140;17.184;2022-12-24T08:47:46;99268.82;;;8.53;100.00
59877;BME280;45749;51.140;17.184;2022-12-24T08:50:13;99268.82;;;8.53;100.00
59877;BME280;45749;51.140;17.184;2022-12-24T08:52:39;99266.19;;;8.53;100.00
59877;BME280;45749;51.140;17.184;2022-12-24T08:55:05;99282.45;;;8.53;100.00
59877;BME280;45749;51.140;17.184;2022-12-24T08:57:34;99290.10;;;8.50;100.00
59877;BME280;45749;51.140;17.184;2022-12-24T09:00:02;99294.63;;;8.48;100.00
59877;BME280;45749;51.140;17.184;2022-12-24T09:02:29;99287.82;;;8.45;100.00
59877;BME280;45749;51.140;17.184;2022-12-24T09:04:55;99295.50;;;8.43;100.00
59877;BME280;45749;51.140;17.184;2022-12-24T09:07:21;99297.64;;;8.43;100.00
59877;BME280;45749;51.140;17.184;2022-12-24T09:09:47;99304.08;;;8.45;100.00
59877;BME280;45749;51.140;17.184;2022-12-24T09:12:13;99310.79;;;8.43;100.00
59877;BME280;45749;51.140;17.184;2022-12-24T09:14:39;99309.13;;;8.42;100.00
59877;BME280;45749;51.140;17.184;2022-12-24T09:17:05;99311.38;;;8.41;100.00
59877;BME280;45749;51.140;17.184;2022-12-24T09:19:31;99314.14;;;8.40;100.00
59877;BME280;45749;51.140;17.184;2022-12-24T09:21:57;99315.19;;;8.37;100.00
59877;BME280;45749;51.140;17.184;2022-12-24T09:24:23;99308.27;;;8.31;100.00
59877;BME280;45749;51.140;17.184;2022-12-24T09:26:48;99317.47;;;8.36;100.00
59877;BME280;45749;51.140;17.184;2022-12-24T09:29:15;99323.55;;;8.37;100.00
59877;BME280;45749;51.140;17.184;2022-12-24T09:31:41;99327.15;;;8.36;100.00
59877;BME280;45749;51.140;17.184;2022-12-24T09:34:08;99328.08;;;8.35;100.00
59877;BME280;45749;51.140;17.184;2022-12-24T09:36:34;99335.27;;;8.33;100.00
59877;BME280;45749;51.140;17.184;2022-12-24T09:39:01;99339.22;;;8.33;100.00
59877;BME280;45749;51.140;17.184;2022-12-24T09:46:52;99347.45;;;8.34;100.00
59877;BME280;45749;51.140;17.184;2022-12-24T09:49:23;99354.85;;;8.34;100.00
59877;BME280;45749;51.140;17.184;2022-12-24T09:52:06;99361.77;;;8.35;100.00
59877;BME280;45749;51.140;17.184;2022-12-24T09:54:37;99354.37;;;8.35;100.00
59877;BME280;45749;51.140;17.184;2022-12-24T09:57:25;99365.02;;;8.33;100.00
59877;BME280;45749;51.140;17.184;2022-12-24T09:59:48;99373.84;;;8.32;100.00
59877;BME280;45749;51.140;17.184;2022-12-24T10:02:16;99374.45;;;8.30;100.00
59877;BME280;45749;51.140;17.184;2022-12-24T10:04:45;99373.84;;;8.32;100.00
59877;BME280;45749;51.140;17.184;2022-12-24T10:07:33;99381.73;;;8.32;100.00
59877;BME280;45749;51.140;17.184;2022-12-24T10:16:12;99391.78;;;8.27;100.00
59877;BME280;45749;51.140;17.184;2022-12-24T10:24:27;99411.73;;;8.24;100.00
59877;BME280;45749;51.140;17.184;2022-12-24T10:27:11;99406.58;;;8.22;100.00
59877;BME280;45749;51.140;17.184;2022-12-24T10:29:44;99414.22;;;8.26;100.00
59877;BME280;45749;51.140;17.184;2022-12-24T10:32:20;99412.45;;;8.26;100.00
59877;BME280;45749;51.140;17.184;2022-12-24T10:37:43;99431.31;;;8.26;100.00
59877;BME280;45749;51.140;17.184;2022-12-24T10:40:34;99431.78;;;8.25;100.00
59877;BME280;45749;51.140;17.184;2022-12-24T10:43:20;99427.84;;;8.25;100.00
59877;BME280;45749;51.140;17.184;2022-12-24T10:46:35;99429.64;;;8.25;100.00
59877;BME280;45749;51.140;17.184;2022-12-24T10:54:27;99453.66;;;8.20;100.00
59877;BME280;45749;51.140;17.184;2022-12-24T10:56:58;99460.47;;;8.17;100.00
59877;BME280;45749;51.140;17.184;2022-12-24T10:59:35;99461.05;;;8.15;100.00
59877;BME280;45749;51.140;17.184;2022-12-24T11:02:00;99467.84;;;8.12;100.00
59877;BME280;45749;51.140;17.184;2022-12-24T11:04:29;99471.31;;;8.07;100.00
59877;BME280;45749;51.140;17.184;2022-12-24T11:07:05;99482.16;;;8.02;100.00
59877;BME280;45749;51.140;17.184;2022-12-24T11:09:34;99487.89;;;8.02;100.00
59877;BME280;45749;51.140;17.184;2022-12-24T11:12:04;99492.19;;;8.03;100.00
59877;BME280;45749;51.140;17.184;2022-12-24T11:14:33;99498.40;;;8.02;100.00
59877;BME280;45749;51.140;17.184;2022-12-24T11:17:04;99496.13;;;8.03;100.00
59877;BME280;45749;51.140;17.184;2022-12-24T11:19:33;99500.55;;;8.02;100.00
59877;BME280;45749;51.140;17.184;2022-12-24T11:22:20;99507.37;;;8.05;100.00
59877;BME280;45749;51.140;17.184;2022-12-24T11:25:17;99499.73;;;8.07;100.00
59877;BME280;45749;51.140;17.184;2022-12-24T11:27:46;99506.17;;;8.09;100.00
59877;BME280;45749;51.140;17.184;2022-12-24T11:35:31;99515.42;;;8.20;100.00
59877;BME280;45749;51.140;17.184;2022-12-24T11:40:48;99523.79;;;8.19;100.00
59877;BME280;45749;51.140;17.184;2022-12-24T11:43:18;99524.84;;;8.17;100.00
59877;BME280;45749;51.140;17.184;2022-12-24T11:45:54;99524.59;;;8.14;100.00
59877;BME280;45749;51.140;17.184;2022-12-24T11:48:30;99526.88;;;8.13;100.00
59877;BME280;45749;51.140;17.184;2022-12-24T11:51:02;99532.70;;;8.11;100.00
59877;BME280;45749;51.140;17.184;2022-12-24T11:53:50;99535.21;;;8.07;100.00
59877;BME280;45749;51.140;17.184;2022-12-24T11:59:14;99533.55;;;8.06;100.00
59877;BME280;45749;51.140;17.184;2022-12-24T12:01:53;99542.97;;;8.09;100.00
59877;BME280;45749;51.140;17.184;2022-12-24T12:04:39;99551.10;;;8.11;100.00
59877;BME280;45749;51.140;17.184;2022-12-24T12:07:16;99549.21;;;8.13;100.00
59877;BME280;45749;51.140;17.184;2022-12-24T12:09:52;99549.44;;;8.16;100.00
59877;BME280;45749;51.140;17.184;2022-12-24T12:12:30;99554.59;;;8.17;100.00
59877;BME280;45749;51.140;17.184;2022-12-24T12:15:12;99556.73;;;8.18;100.00
59877;BME280;45749;51.140;17.184;2022-12-24T12:17:59;99563.66;;;8.19;100.00
59877;BME280;45749;51.140;17.184;2022-12-24T12:20:33;99569.52;;;8.22;100.00
59877;BME280;45749;51.140;17.184;2022-12-24T12:23:28;99565.23;;;8.21;100.00
59877;BME280;45749;51.140;17.184;2022-12-24T12:26:01;99574.78;;;8.22;100.00
59877;BME280;45749;51.140;17.184;2022-12-24T12:28:40;99582.91;;;8.25;100.00
59877;BME280;45749;51.140;17.184;2022-12-24T12:36:42;99592.27;;;8.29;100.00
59877;BME280;45749;51.140;17.184;2022-12-24T12:39:08;99595.25;;;8.30;100.00
59877;BME280;45749;51.140;17.184;2022-12-24T12:59:03;99605.82;;;8.41;100.00
59877;BME280;45749;51.140;17.184;2022-12-24T13:19:24;99637.42;;;8.58;100.00
59877;BME280;45749;51.140;17.184;2022-12-24T13:22:04;99643.55;;;8.59;100.00
59877;BME280;45749;51.140;17.184;2022-12-24T13:24:32;99642.58;;;8.60;100.00
59877;BME280;45749;51.140;17.184;2022-12-24T13:27:16;99644.25;;;8.61;100.00
59877;BME280;45749;51.140;17.184;2022-12-24T13:32:45;99651.53;;;8.57;100.00
59877;BME280;45749;51.140;17.184;2022-12-24T13:37:50;99661.31;;;8.55;100.00
59877;BME280;45749;51.140;17.184;2022-12-24T13:40:24;99670.42;;;8.57;100.00
59877;BME280;45749;51.140;17.184;2022-12-24T13:50:53;99666.48;;;8.57;100.00
59877;BME280;45749;51.140;17.184;2022-12-24T13:53:27;99667.31;;;8.57;100.00
59877;BME280;45749;51.140;17.184;2022-12-24T13:56:19;99674.23;;;8.58;100.00
59877;BME280;45749;51.140;17.184;2022-12-24T13:58:45;99674.37;;;8.57;100.00
59877;BME280;45749;51.140;17.184;2022-12-24T14:01:14;99677.34;;;8.58;100.00
59877;BME280;45749;51.140;17.184;2022-12-24T14:03:56;99671.51;;;8.60;100.00
59877;BME280;45749;51.140;17.184;2022-12-24T14:09:18;99672.83;;;8.60;100.00
59877;BME280;45749;51.140;17.184;2022-12-24T14:17:00;99675.94;;;8.59;100.00
59877;BME280;45749;51.140;17.184;2022-12-24T14:19:40;99680.71;;;8.60;100.00
59877;BME280;45749;51.140;17.184;2022-12-24T14:22:28;99679.75;;;8.61;100.00
59877;BME280;45749;51.140;17.184;2022-12-24T14:25:02;99685.84;;;8.61;100.00
59877;BME280;45749;51.140;17.184;2022-12-24T14:27:42;99688.37;;;8.63;100.00
59877;BME280;45749;51.140;17.184;2022-12-24T14:30:22;99687.41;;;8.64;100.00
59877;BME280;45749;51.140;17.184;2022-12-24T14:32:51;99684.78;;;8.64;100.00
59877;BME280;45749;51.140;17.184;2022-12-24T14:35:23;99687.41;;;8.64;100.00
59877;BME280;45749;51.140;17.184;2022-12-24T14:38:06;99692.33;;;8.63;100.00
59877;BME280;45749;51.140;17.184;2022-12-24T14:40:37;99698.16;;;8.61;100.00
59877;BME280;45749;51.140;17.184;2022-12-24T14:43:13;99702.72;;;8.59;100.00
59877;BME280;45749;51.140;17.184;2022-12-24T14:46:03;99705.92;;;8.57;100.00
59877;BME280;45749;51.140;17.184;2022-12-24T14:48:43;99719.17;;;8.55;100.00
59877;BME280;45749;51.140;17.184;2022-12-24T14:51:38;99717.14;;;8.53;100.00
59877;BME280;45749;51.140;17.184;2022-12-24T14:59:51;99744.94;;;8.44;100.00
59877;BME280;45749;51.140;17.184;2022-12-24T15:02:23;99748.63;;;8.42;100.00
59877;BME280;45749;51.140;17.184;2022-12-24T15:07:56;99767.25;;;8.39;100.00
59877;BME280;45749;51.140;17.184;2022-12-24T15:10:24;99767.73;;;8.38;100.00
59877;BME280;45749;51.140;17.184;2022-12-24T15:12:56;99779.56;;;8.38;100.00
59877;BME280;45749;51.140;17.184;2022-12-24T15:15:25;99774.78;;;8.38;100.00
59877;BME280;45749;51.140;17.184;2022-12-24T15:17:52;99780.48;;;8.37;100.00
59877;BME280;45749;51.140;17.184;2022-12-24T15:20:21;99784.44;;;8.37;100.00
59877;BME280;45749;51.140;17.184;2022-12-24T15:22:51;99796.66;;;8.38;100.00